Terminal Aerodrome Forecast
Issued by NWS

Home | Current Version | Previous Version | Text Only | Print | Product List | Glossary On
Versions: 1 2 3 4 5 6 7 8 9 10 11 12 13 14 15 16 17 18
000
FTAK31 PAFA 302322
TAFASC
TAF
PASC 302322Z 3100/3124 07015KT P6SM SCT006
     FM310700 05008KT 4SM BR OVC006
     FM311100 03008KT 4SM BR OVC003
     FM311800 03008KT P6SM OVC006
     FM312100 03008KT P6SM BKN010=

USA.gov is the U.S. government's official web portal to all federal, state and local government web resources and services.